Time;durP1;ratioP1;P1;durP2;ratioP2;P2;SDS_P1;SDS_P2;PMS_P1;PMS_P2;Temp;Humidity;BMP_temperature;BMP_pressure;BME280_temperature;BME280_humidity;BME280_pressure;Samples;Min_cycle;Max_cycle;Signal;HPM_P1;HPM_P2
2023/07/18 00:01:23;;;;;;;14.48;9.57;;;;;;;-148.88;100.00;-17125.47;5013056;28;20106;-71
2023/07/18 00:03:49;;;;;;;18.65;9.55;;;;;;;-148.88;100.00;-17125.47;5014200;28;20029;-71
2023/07/18 00:06:17;;;;;;;15.85;9.48;;;;;;;-148.88;100.00;-17125.47;5012724;28;20022;-71
2023/07/18 00:08:43;;;;;;;18.35;10.32;;;;;;;-148.88;100.00;-17125.47;5014302;28;20088;-71
2023/07/18 00:11:08;;;;;;;15.15;10.02;;;;;;;-148.88;100.00;-17125.47;5014650;28;20480;-70
2023/07/18 00:13:33;;;;;;;17.02;10.13;;;;;;;-148.88;100.00;-17125.47;5014485;28;20041;-70
2023/07/18 00:15:59;;;;;;;15.80;9.75;;;;;;;-148.88;100.00;-17125.47;5014384;28;20390;-71
2023/07/18 00:18:24;;;;;;;18.23;10.45;;;;;;;-148.88;100.00;-17125.47;5014416;28;20101;-71
2023/07/18 00:20:50;;;;;;;16.23;9.90;;;;;;;-148.88;100.00;-17125.47;5013399;28;20053;-71
2023/07/18 00:23:15;;;;;;;16.90;10.50;;;;;;;-148.88;100.00;-17125.47;5014374;28;20030;-70
2023/07/18 00:25:40;;;;;;;16.40;9.50;;;;;;;-148.88;100.00;-17125.47;5014482;28;20018;-71
2023/07/18 00:28:06;;;;;;;14.00;9.75;;;;;;;-148.88;100.00;-17125.47;5014664;28;20098;-71
2023/07/18 00:30:31;;;;;;;15.10;9.60;;;;;;;-148.88;100.00;-17125.47;5014213;28;20487;-71
2023/07/18 00:32:57;;;;;;;16.77;10.98;;;;;;;-148.88;100.00;-17125.47;5014436;28;20029;-71
2023/07/18 00:35:22;;;;;;;16.40;10.23;;;;;;;-148.88;100.00;-17125.47;5013391;28;20038;-71
2023/07/18 00:37:48;;;;;;;16.90;10.65;;;;;;;-148.88;100.00;-17125.47;5014521;28;20045;-71
2023/07/18 00:40:14;;;;;;;17.73;11.48;;;;;;;-148.88;100.00;-17125.47;5014102;28;20052;-70
2023/07/18 00:42:45;;;;;;;17.88;11.00;;;;;;;-148.88;100.00;-17125.47;5014463;28;20396;-71
2023/07/18 00:45:11;;;;;;;15.63;10.65;;;;;;;-148.88;100.00;-17125.47;5014626;28;20018;-71
2023/07/18 00:47:40;;;;;;;15.32;10.93;;;;;;;-148.88;100.00;-17125.47;5012614;28;20566;-71
2023/07/18 00:50:15;;;;;;;16.60;10.82;;;;;;;-148.88;100.00;-17125.47;5016416;28;20069;-71
2023/07/18 00:52:44;;;;;;;15.65;10.25;;;;;;;-148.88;100.00;-17125.47;5016639;28;20483;-70
2023/07/18 00:55:11;;;;;;;15.13;10.68;;;;;;;-148.88;100.00;-17125.47;5017793;28;20030;-70
2023/07/18 00:57:42;;;;;;;18.98;10.52;;;;;;;-148.88;100.00;-17125.47;5017941;28;20021;-71
2023/07/18 01:00:11;;;;;;;22.00;12.13;;;;;;;-148.88;100.00;-17125.47;5017907;28;20017;-70
2023/07/18 01:02:41;;;;;;;21.15;11.93;;;;;;;-148.88;100.00;-17125.47;5017826;28;20515;-70
2023/07/18 01:05:08;;;;;;;22.15;12.13;;;;;;;-148.88;100.00;-17125.47;5017704;28;20026;-70
2023/07/18 01:07:34;;;;;;;20.77;12.70;;;;;;;-148.88;100.00;-17125.47;5017586;28;20029;-71
2023/07/18 01:10:25;;;;;;;20.40;12.35;;;;;;;-148.88;100.00;-17125.47;5017915;28;20045;-70
2023/07/18 01:12:55;;;;;;;21.95;13.00;;;;;;;-148.88;100.00;-17125.47;5017434;28;20022;-70
2023/07/18 01:15:21;;;;;;;21.52;13.05;;;;;;;-148.88;100.00;-17125.47;5016127;28;20022;-70
2023/07/18 01:17:48;;;;;;;17.77;11.10;;;;;;;-148.88;100.00;-17125.47;5017229;28;20021;-71
2023/07/18 01:20:26;;;;;;;18.40;11.55;;;;;;;-148.88;100.00;-17125.47;5017201;28;20022;-72
2023/07/18 01:22:54;;;;;;;18.33;11.70;;;;;;;-148.88;100.00;-17125.47;5016300;28;20026;-71
2023/07/18 01:25:21;;;;;;;20.50;12.27;;;;;;;-148.88;100.00;-17125.47;5017484;28;20026;-70
2023/07/18 01:27:47;;;;;;;16.83;11.23;;;;;;;-148.88;100.00;-17125.47;5017687;28;20026;-71
2023/07/18 01:30:14;;;;;;;17.33;11.57;;;;;;;-148.88;100.00;-17125.47;5017716;28;20048;-70
2023/07/18 01:32:41;;;;;;;21.83;12.48;;;;;;;-148.88;100.00;-17125.47;5017549;28;20061;-71
2023/07/18 01:35:10;;;;;;;23.75;13.00;;;;;;;-148.88;100.00;-17125.47;5017335;28;20033;-70
2023/07/18 01:37:37;;;;;;;20.25;12.88;;;;;;;-148.88;100.00;-17125.47;5017179;28;20021;-71
2023/07/18 01:40:13;;;;;;;22.55;13.00;;;;;;;-148.88;100.00;-17125.47;5017157;28;20017;-71
2023/07/18 01:42:51;;;;;;;24.60;12.10;;;;;;;-148.88;100.00;-17125.47;5015578;28;20057;-70
2023/07/18 01:45:20;;;;;;;17.92;11.63;;;;;;;-148.88;100.00;-17125.47;5015468;28;20120;-71
2023/07/18 01:47:46;;;;;;;22.50;12.02;;;;;;;-148.88;100.00;-17125.47;5017377;28;20017;-71
2023/07/18 01:50:12;;;;;;;21.05;12.18;;;;;;;-148.88;100.00;-17125.47;5017054;28;20028;-71
2023/07/18 01:52:37;;;;;;;19.90;12.68;;;;;;;-148.88;100.00;-17125.47;5017264;28;20026;-71
2023/07/18 01:55:04;;;;;;;22.52;12.85;;;;;;;-148.88;100.00;-17125.47;5017548;28;20056;-70
2023/07/18 01:57:36;;;;;;;20.80;11.70;;;;;;;-148.88;100.00;-17125.47;5015657;28;20229;-71
2023/07/18 02:00:02;;;;;;;22.02;12.63;;;;;;;-148.88;100.00;-17125.47;5015200;28;20034;-70
2023/07/18 02:02:28;;;;;;;20.23;12.15;;;;;;;-148.88;100.00;-17125.47;5016693;28;20022;-71
2023/07/18 02:04:55;;;;;;;19.65;12.18;;;;;;;-148.88;100.00;-17125.47;5015692;28;20026;-70
2023/07/18 02:07:21;;;;;;;24.00;11.80;;;;;;;-148.88;100.00;-17125.47;5014922;28;20034;-71
2023/07/18 02:09:46;;;;;;;22.33;12.10;;;;;;;-148.88;100.00;-17125.47;5016455;28;20021;-71
2023/07/18 02:12:12;;;;;;;18.17;11.63;;;;;;;-148.88;100.00;-17125.47;5014853;28;20030;-70
2023/07/18 02:14:37;;;;;;;20.60;13.25;;;;;;;-148.88;100.00;-17125.47;5016371;28;20053;-70
2023/07/18 02:17:03;;;;;;;19.10;12.60;;;;;;;-148.88;100.00;-17125.47;5016071;28;20078;-71
2023/07/18 02:19:29;;;;;;;24.75;12.70;;;;;;;-148.88;100.00;-17125.47;5016302;28;20030;-70
2023/07/18 02:21:54;;;;;;;20.30;11.95;;;;;;;-148.88;100.00;-17125.47;5016281;28;20106;-71
2023/07/18 02:24:20;;;;;;;21.08;12.60;;;;;;;-148.88;100.00;-17125.47;5016471;28;20026;-70
2023/07/18 02:26:45;;;;;;;23.30;14.13;;;;;;;-148.88;100.00;-17125.47;5016422;28;20026;-71
2023/07/18 02:29:12;;;;;;;21.48;12.95;;;;;;;-148.88;100.00;-17125.47;5016364;28;20027;-70
2023/07/18 02:31:37;;;;;;;20.42;13.35;;;;;;;-148.88;100.00;-17125.47;5016028;28;20025;-71
2023/07/18 02:34:04;;;;;;;23.73;12.80;;;;;;;-148.88;100.00;-17125.47;5015001;28;20076;-70
2023/07/18 02:36:30;;;;;;;19.38;12.13;;;;;;;-148.88;100.00;-17125.47;5014858;28;20025;-71
2023/07/18 02:38:55;;;;;;;19.58;12.65;;;;;;;-148.88;100.00;-17125.47;5015851;28;20022;-71
2023/07/18 02:41:20;;;;;;;18.73;11.48;;;;;;;-148.88;100.00;-17125.47;5014462;28;20025;-70
2023/07/18 02:43:46;;;;;;;20.38;12.25;;;;;;;-148.88;100.00;-17125.47;5015825;28;20022;-70
2023/07/18 02:46:11;;;;;;;18.63;12.10;;;;;;;-148.88;100.00;-17125.47;5015483;28;20028;-71
2023/07/18 02:48:37;;;;;;;19.55;12.38;;;;;;;-148.88;100.00;-17125.47;5015713;28;20034;-70
2023/07/18 02:51:02;;;;;;;19.33;12.02;;;;;;;-148.88;100.00;-17125.47;5014470;28;20428;-70
2023/07/18 02:53:28;;;;;;;19.60;11.88;;;;;;;-148.88;100.00;-17125.47;5015848;28;20068;-70
2023/07/18 02:55:54;;;;;;;21.02;12.18;;;;;;;-148.88;100.00;-17125.47;5015987;28;20138;-71
2023/07/18 02:58:19;;;;;;;21.88;11.90;;;;;;;-148.88;100.00;-17125.47;5015581;28;20017;-70
2023/07/18 03:00:45;;;;;;;20.42;12.05;;;;;;;-148.88;100.00;-17125.47;5015656;28;20380;-70
2023/07/18 03:03:12;;;;;;;17.20;10.85;;;;;;;-148.88;100.00;-17125.47;5014268;28;20057;-70
2023/07/18 03:05:38;;;;;;;19.13;11.50;;;;;;;-148.88;100.00;-17125.47;5015710;28;20126;-70
2023/07/18 03:08:03;;;;;;;21.10;11.27;;;;;;;-148.88;100.00;-17125.47;5013988;28;20488;-71
2023/07/18 03:10:29;;;;;;;18.95;11.25;;;;;;;-148.88;100.00;-17125.47;5015009;28;20022;-71
2023/07/18 03:12:54;;;;;;;21.50;10.73;;;;;;;-148.88;100.00;-17125.47;5015523;28;20080;-70
2023/07/18 03:15:21;;;;;;;18.40;10.38;;;;;;;-148.88;100.00;-17125.47;5014460;28;20021;-71
2023/07/18 03:17:46;;;;;;;15.63;10.27;;;;;;;-148.88;100.00;-17125.47;5015430;28;20022;-71
2023/07/18 03:20:19;;;;;;;18.50;10.98;;;;;;;-148.88;100.00;-17125.47;5015434;28;20029;-71
2023/07/18 03:22:49;;;;;;;17.38;9.65;;;;;;;-148.88;100.00;-17125.47;5015352;28;20033;-71
2023/07/18 03:25:17;;;;;;;18.13;10.38;;;;;;;-148.88;100.00;-17125.47;5014814;28;20033;-71
2023/07/18 03:27:43;;;;;;;18.27;10.32;;;;;;;-148.88;100.00;-17125.47;5014564;28;20519;-71
2023/07/18 03:30:11;;;;;;;16.42;10.88;;;;;;;-148.88;100.00;-17125.47;5014695;28;20037;-70
2023/07/18 03:32:40;;;;;;;21.23;10.63;;;;;;;-148.88;100.00;-17125.47;5013472;28;20113;-71
2023/07/18 03:35:07;;;;;;;18.48;11.05;;;;;;;-148.88;100.00;-17125.47;5014648;28;20026;-71
2023/07/18 03:37:36;;;;;;;17.55;11.05;;;;;;;-148.88;100.00;-17125.47;5014929;28;20439;-71
2023/07/18 03:40:04;;;;;;;19.83;11.30;;;;;;;-148.88;100.00;-17125.47;5014880;28;20017;-71
2023/07/18 03:42:29;;;;;;;30.55;13.02;;;;;;;-148.88;100.00;-17125.47;5014568;28;20025;-71
2023/07/18 03:44:55;;;;;;;28.15;12.45;;;;;;;-148.88;100.00;-17125.47;5015048;28;20026;-71
2023/07/18 03:47:20;;;;;;;29.30;12.57;;;;;;;-148.88;100.00;-17125.47;5014857;28;20056;-71
2023/07/18 03:49:45;;;;;;;25.98;11.73;;;;;;;-148.88;100.00;-17125.47;5015225;28;20030;-71
2023/07/18 03:52:11;;;;;;;25.92;12.27;;;;;;;-148.88;100.00;-17125.47;5014788;28;20053;-71
2023/07/18 03:54:36;;;;;;;23.10;12.02;;;;;;;-148.88;100.00;-17125.47;5014425;28;20072;-70
2023/07/18 03:57:01;;;;;;;20.92;11.75;;;;;;;-148.88;100.00;-17125.47;5014648;28;20080;-71
2023/07/18 03:59:27;;;;;;;20.85;12.32;;;;;;;-148.88;100.00;-17125.47;5014521;28;20021;-71
2023/07/18 04:01:53;;;;;;;24.23;11.90;;;;;;;-148.88;100.00;-17125.47;5014103;28;20022;-70
2023/07/18 04:04:18;;;;;;;22.30;12.15;;;;;;;-148.88;100.00;-17125.47;5014368;28;20399;-70
2023/07/18 04:06:45;;;;;;;21.65;11.45;;;;;;;-148.88;100.00;-17125.47;5014709;28;20324;-71
2023/07/18 04:09:11;;;;;;;16.15;11.38;;;;;;;-148.88;100.00;-17125.47;5014261;28;20033;-70
2023/07/18 04:11:38;;;;;;;17.08;11.27;;;;;;;-148.88;100.00;-17125.47;5014464;28;20022;-70
2023/07/18 04:14:03;;;;;;;20.13;11.02;;;;;;;-148.88;100.00;-17125.47;5014362;28;20069;-71
2023/07/18 04:16:29;;;;;;;20.58;11.45;;;;;;;-148.88;100.00;-17125.47;5014612;28;20064;-71
2023/07/18 04:18:54;;;;;;;18.13;12.27;;;;;;;-148.88;100.00;-17125.47;5012864;28;20100;-70
2023/07/18 04:21:20;;;;;;;17.95;11.88;;;;;;;-148.88;100.00;-17125.47;5014044;28;20032;-70
2023/07/18 04:23:45;;;;;;;21.75;12.10;;;;;;;-148.88;100.00;-17125.47;5017737;28;20514;-71
2023/07/18 04:26:12;;;;;;;17.88;10.60;;;;;;;-148.88;100.00;-17125.47;5018337;28;20029;-71
2023/07/18 04:28:38;;;;;;;18.33;10.75;;;;;;;-148.88;100.00;-17125.47;5018202;28;20026;-70
2023/07/18 04:31:04;;;;;;;23.90;12.35;;;;;;;-148.88;100.00;-17125.47;5018403;28;20144;-72
2023/07/18 04:33:37;;;;;;;22.55;12.18;;;;;;;-148.88;100.00;-17125.47;5018441;28;20046;-72
2023/07/18 04:36:04;;;;;;;19.33;11.68;;;;;;;-148.88;100.00;-17125.47;5018128;28;20026;-72
2023/07/18 04:38:30;;;;;;;19.63;11.23;;;;;;;-148.88;100.00;-17125.47;5017092;28;20097;-71
2023/07/18 04:40:55;;;;;;;17.88;11.60;;;;;;;-148.88;100.00;-17125.47;5016977;28;20033;-71
2023/07/18 04:43:20;;;;;;;20.13;11.95;;;;;;;-148.88;100.00;-17125.47;5017026;28;20046;-71
2023/07/18 04:45:47;;;;;;;24.35;12.82;;;;;;;-148.88;100.00;-17125.47;5017362;28;20101;-70
2023/07/18 04:48:16;;;;;;;24.40;12.52;;;;;;;-148.88;100.00;-17125.47;5016856;28;20022;-70
2023/07/18 04:50:43;;;;;;;21.00;11.98;;;;;;;-148.88;100.00;-17125.47;5016872;28;20113;-70
2023/07/18 04:53:09;;;;;;;20.65;12.75;;;;;;;-148.88;100.00;-17125.47;5016921;28;20408;-70
2023/07/18 04:55:36;;;;;;;24.75;12.10;;;;;;;-148.88;100.00;-17125.47;5017042;28;20099;-70
2023/07/18 04:58:06;;;;;;;26.02;12.93;;;;;;;-148.88;100.00;-17125.47;5015448;28;20026;-71
2023/07/18 05:00:31;;;;;;;27.13;12.40;;;;;;;-148.88;100.00;-17125.47;5025376;28;20150;-72
2023/07/18 05:02:58;;;;;;;19.48;10.88;;;;;;;-148.88;100.00;-17125.47;5020226;28;20117;-71
2023/07/18 05:05:25;;;;;;;19.50;10.50;;;;;;;-148.88;100.00;-17125.47;5016484;28;20029;-71
2023/07/18 05:07:51;;;;;;;21.90;12.40;;;;;;;-148.88;100.00;-17125.47;5016542;28;20056;-70
2023/07/18 05:10:16;;;;;;;18.02;11.10;;;;;;;-148.88;100.00;-17125.47;5016615;28;20054;-70
2023/07/18 05:12:42;;;;;;;22.25;11.40;;;;;;;-148.88;100.00;-17125.47;5015163;28;20033;-70
2023/07/18 05:15:10;;;;;;;22.15;11.63;;;;;;;-148.88;100.00;-17125.47;5016542;28;20018;-71
2023/07/18 05:17:36;;;;;;;24.75;11.93;;;;;;;-148.88;100.00;-17125.47;5016406;28;20028;-70
2023/07/18 05:20:01;;;;;;;20.65;12.98;;;;;;;-148.88;100.00;-17125.47;5016530;28;20112;-71
2023/07/18 05:22:27;;;;;;;25.70;12.73;;;;;;;-148.88;100.00;-17125.47;5015368;28;20037;-70
2023/07/18 05:24:52;;;;;;;25.90;13.63;;;;;;;-148.88;100.00;-17125.47;5014914;28;20583;-70
2023/07/18 05:27:18;;;;;;;24.85;13.82;;;;;;;-148.88;100.00;-17125.47;5016199;28;20045;-70
2023/07/18 05:29:43;;;;;;;24.75;14.10;;;;;;;-148.88;100.00;-17125.47;5016493;28;20018;-70
2023/07/18 05:32:09;;;;;;;32.55;14.65;;;;;;;-148.88;100.00;-17125.47;5015510;28;20033;-70
2023/07/18 05:34:35;;;;;;;26.60;14.60;;;;;;;-148.88;100.00;-17125.47;5015880;28;20528;-70
2023/07/18 05:37:01;;;;;;;23.63;13.27;;;;;;;-148.88;100.00;-17125.47;5016703;28;20100;-70
2023/07/18 05:39:27;;;;;;;24.80;13.63;;;;;;;-148.88;100.00;-17125.47;5015594;28;20061;-71
2023/07/18 05:41:56;;;;;;;26.77;12.65;;;;;;;-148.88;100.00;-17125.47;5016390;28;20022;-70
2023/07/18 05:44:21;;;;;;;23.15;12.30;;;;;;;-148.88;100.00;-17125.47;5016512;28;20026;-70
2023/07/18 05:46:46;;;;;;;23.67;12.48;;;;;;;-148.88;100.00;-17125.47;5015887;28;20079;-70
2023/07/18 05:49:12;;;;;;;20.73;11.98;;;;;;;-148.88;100.00;-17125.47;5016383;28;20112;-70
2023/07/18 05:51:37;;;;;;;25.70;12.63;;;;;;;-148.88;100.00;-17125.47;5015887;28;20045;-70
2023/07/18 05:54:04;;;;;;;27.08;12.40;;;;;;;-148.88;100.00;-17125.47;5016372;28;20072;-70
2023/07/18 05:56:30;;;;;;;20.67;11.80;;;;;;;-148.88;100.00;-17125.47;5015549;28;20017;-70
2023/07/18 05:58:55;;;;;;;29.88;12.27;;;;;;;-148.88;100.00;-17125.47;5015631;28;20026;-70
2023/07/18 06:01:21;;;;;;;23.95;10.93;;;;;;;-148.88;100.00;-17125.47;5015726;28;20060;-71
2023/07/18 06:03:47;;;;;;;18.05;9.32;;;;;;;-148.88;100.00;-17125.47;5016989;28;20504;-71
2023/07/18 06:06:13;;;;;;;22.85;10.93;;;;;;;-148.88;100.00;-17125.47;5016597;28;20025;-70
2023/07/18 06:08:38;;;;;;;18.30;10.30;;;;;;;-148.88;100.00;-17125.47;5016282;28;20030;-70
2023/07/18 06:11:03;;;;;;;20.00;10.75;;;;;;;-148.88;100.00;-17125.47;5016184;28;20026;-71
2023/07/18 06:13:29;;;;;;;21.92;10.63;;;;;;;-148.88;100.00;-17125.47;5015712;28;20018;-71
2023/07/18 06:15:54;;;;;;;22.45;10.13;;;;;;;-148.88;100.00;-17125.47;5016167;28;20072;-71
2023/07/18 06:18:20;;;;;;;17.35;9.63;;;;;;;-148.88;100.00;-17125.47;5016306;28;20053;-70
2023/07/18 06:20:45;;;;;;;17.83;8.98;;;;;;;-148.88;100.00;-17125.47;5016141;28;20025;-70
2023/07/18 06:23:10;;;;;;;19.58;9.48;;;;;;;-148.88;100.00;-17125.47;5016188;28;20029;-70
2023/07/18 06:25:36;;;;;;;16.10;9.05;;;;;;;-148.88;100.00;-17125.47;5015585;28;20030;-70
2023/07/18 06:28:02;;;;;;;17.20;9.70;;;;;;;-148.88;100.00;-17125.47;5015268;28;20022;-72
2023/07/18 06:30:28;;;;;;;15.18;8.48;;;;;;;-148.88;100.00;-17125.47;5015319;28;20485;-70
2023/07/18 06:32:54;;;;;;;17.55;8.98;;;;;;;-148.88;100.00;-17125.47;5015266;28;20048;-70
2023/07/18 06:35:19;;;;;;;20.08;8.57;;;;;;;-148.88;100.00;-17125.47;5015241;28;20105;-70
2023/07/18 06:37:45;;;;;;;20.48;8.73;;;;;;;-148.88;100.00;-17125.47;5015215;28;20112;-70
2023/07/18 06:40:14;;;;;;;18.13;8.65;;;;;;;-148.88;100.00;-17125.47;5013885;28;20038;-70
2023/07/18 06:42:39;;;;;;;21.08;7.88;;;;;;;-148.88;100.00;-17125.47;5014943;28;20025;-70
2023/07/18 06:45:06;;;;;;;15.48;6.72;;;;;;;-148.88;100.00;-17125.47;5014978;28;20052;-71
2023/07/18 06:47:32;;;;;;;14.00;6.05;;;;;;;-148.88;100.00;-17125.47;5014264;28;20018;-70
2023/07/18 06:49:57;;;;;;;9.73;5.88;;;;;;;-148.88;100.00;-17125.47;5014995;28;20088;-70
2023/07/18 06:52:23;;;;;;;12.30;6.40;;;;;;;-148.88;100.00;-17125.47;5015298;28;20369;-72
2023/07/18 06:54:49;;;;;;;9.43;5.43;;;;;;;-148.88;100.00;-17125.47;5015095;28;20087;-70
2023/07/18 06:57:15;;;;;;;13.40;5.75;;;;;;;-148.88;100.00;-17125.47;5014681;28;20472;-70
2023/07/18 06:59:41;;;;;;;10.32;5.75;;;;;;;-148.88;100.00;-17125.47;5013476;28;20036;-71
2023/07/18 07:02:10;;;;;;;13.13;6.05;;;;;;;-148.88;100.00;-17125.47;5015168;28;20138;-71
2023/07/18 07:04:36;;;;;;;12.43;5.65;;;;;;;-148.88;100.00;-17125.47;5013398;28;20064;-71
2023/07/18 07:07:02;;;;;;;10.50;5.32;;;;;;;-148.88;100.00;-17125.47;5014361;28;20511;-70
2023/07/18 07:09:29;;;;;;;10.40;5.05;;;;;;;-148.88;100.00;-17125.47;5014877;28;20108;-70
2023/07/18 07:11:54;;;;;;;10.95;5.63;;;;;;;-148.88;100.00;-17125.47;5014559;28;20032;-70
2023/07/18 07:14:19;;;;;;;9.25;6.00;;;;;;;-148.88;100.00;-17125.47;5014579;28;20017;-71
2023/07/18 07:16:45;;;;;;;10.60;5.32;;;;;;;-148.88;100.00;-17125.47;5014314;28;20022;-70
2023/07/18 07:19:12;;;;;;;11.52;5.18;;;;;;;-148.88;100.00;-17125.47;5014256;28;20018;-70
2023/07/18 07:21:37;;;;;;;8.82;5.05;;;;;;;-148.88;100.00;-17125.47;5014077;28;20052;-70
2023/07/18 07:24:03;;;;;;;8.77;5.18;;;;;;;-148.88;100.00;-17125.47;5014395;28;20021;-70
2023/07/18 07:26:28;;;;;;;10.70;5.45;;;;;;;-148.88;100.00;-17125.47;5013934;28;20109;-72
2023/07/18 07:28:54;;;;;;;10.13;5.05;;;;;;;-148.88;100.00;-17125.47;5014433;28;20022;-72
2023/07/18 07:31:19;;;;;;;14.07;5.43;;;;;;;-148.88;100.00;-17125.47;5014604;28;20032;-71
2023/07/18 07:33:47;;;;;;;8.68;5.00;;;;;;;-148.88;100.00;-17125.47;5015479;28;20531;-71
2023/07/18 07:36:12;;;;;;;9.25;5.10;;;;;;;-148.88;100.00;-17125.47;5016381;28;20109;-70
2023/07/18 07:38:38;;;;;;;8.70;4.53;;;;;;;-148.88;98.89;-17125.47;5014262;28;20519;-71
2023/07/18 07:41:06;;;;;;;10.25;5.22;;;;;;;-148.88;99.58;-17125.47;5013934;28;20048;-70
2023/07/18 07:43:31;;;;;;;8.93;4.97;;;;;;;-148.88;97.38;-17125.47;5014322;28;20032;-71
2023/07/18 07:45:56;;;;;;;12.75;6.20;;;;;;;-148.88;97.75;-17125.47;5013818;28;20022;-72
2023/07/18 07:48:22;;;;;;;9.88;5.15;;;;;;;-148.88;98.42;-17125.47;5014359;28;20022;-71
2023/07/18 07:50:50;;;;;;;12.82;5.30;;;;;;;-148.88;97.41;-17125.47;5014091;28;20022;-71
2023/07/18 07:53:15;;;;;;;8.95;4.72;;;;;;;-148.88;97.19;-17125.47;5012485;28;20033;-71
2023/07/18 07:55:41;;;;;;;11.48;5.63;;;;;;;-148.88;97.40;-17125.47;5013867;28;20080;-72
2023/07/18 07:58:07;;;;;;;7.18;4.57;;;;;;;-148.88;98.49;-17125.47;5013466;28;20073;-71
2023/07/18 08:00:32;;;;;;;9.80;4.95;;;;;;;-148.88;96.62;-17125.47;5012661;28;20018;-71
2023/07/18 08:02:58;;;;;;;11.25;4.72;;;;;;;-148.88;96.41;-17125.47;5013612;28;20053;-71
2023/07/18 08:05:23;;;;;;;10.30;4.70;;;;;;;-148.88;95.36;-17125.47;5013822;28;20026;-71
2023/07/18 08:07:50;;;;;;;8.35;4.57;;;;;;;-148.88;95.48;-17125.47;5014379;28;20042;-71
2023/07/18 08:10:17;;;;;;;9.30;4.57;;;;;;;-148.88;96.96;-17125.47;5013550;28;20025;-71
2023/07/18 08:12:42;;;;;;;7.13;4.40;;;;;;;-148.88;95.35;-17125.47;5013553;28;20104;-71
2023/07/18 08:15:08;;;;;;;9.45;4.47;;;;;;;-148.88;92.21;-17125.47;5013711;28;20054;-71
2023/07/18 08:17:34;;;;;;;10.85;4.32;;;;;;;-148.88;90.09;-17125.47;5013372;28;20024;-71
2023/07/18 08:19:59;;;;;;;10.00;4.10;;;;;;;-148.88;91.24;-17125.47;5013276;28;20034;-71
2023/07/18 08:22:25;;;;;;;8.95;4.13;;;;;;;-148.88;89.13;-17125.47;5013367;28;20076;-71
2023/07/18 08:24:50;;;;;;;8.82;3.80;;;;;;;-148.88;90.76;-17125.47;5013277;28;20036;-71
2023/07/18 08:27:15;;;;;;;8.70;3.67;;;;;;;-148.88;89.68;-17125.47;5011994;28;20022;-71
2023/07/18 08:29:42;;;;;;;9.82;4.53;;;;;;;-148.88;87.55;-17125.47;5013545;28;20022;-71
2023/07/18 08:32:07;;;;;;;7.03;3.30;;;;;;;-148.88;91.34;-17125.47;5013293;28;20026;-70
2023/07/18 08:34:35;;;;;;;9.48;4.13;;;;;;;-148.88;90.66;-17125.47;5013255;28;20075;-71
2023/07/18 08:37:02;;;;;;;8.18;3.75;;;;;;;-148.88;92.00;-17125.47;5013160;28;20033;-71
2023/07/18 08:39:28;;;;;;;9.55;4.47;;;;;;;-148.88;88.48;-17125.47;5013125;28;20022;-70
2023/07/18 08:41:57;;;;;;;9.25;3.67;;;;;;;-148.88;89.09;-17125.47;5013482;28;20029;-72
2023/07/18 08:44:22;;;;;;;7.45;4.03;;;;;;;-148.88;87.04;-17125.47;5013023;28;20103;-72
2023/07/18 08:46:49;;;;;;;8.63;3.28;;;;;;;-148.88;88.59;-17125.47;5012955;28;20069;-71
2023/07/18 08:49:17;;;;;;;9.00;3.78;;;;;;;-148.88;85.58;-17125.47;5013092;28;20563;-71
2023/07/18 08:51:44;;;;;;;8.25;3.30;;;;;;;-148.88;87.72;-17125.47;5011903;28;20022;-71
2023/07/18 08:54:10;;;;;;;6.93;3.95;;;;;;;-148.88;88.10;-17125.47;5013584;28;20030;-71
2023/07/18 08:56:37;;;;;;;5.95;3.50;;;;;;;-148.88;90.10;-17125.47;5011863;28;20033;-70
2023/07/18 08:59:03;;;;;;;9.52;4.13;;;;;;;-148.88;88.48;-17125.47;5013076;28;20485;-71
2023/07/18 09:01:28;;;;;;;9.85;3.80;;;;;;;-148.88;91.70;-17125.47;5013121;28;20037;-71
2023/07/18 09:03:54;;;;;;;8.70;4.30;;;;;;;-148.88;89.18;-17125.47;5013043;28;20033;-70
2023/07/18 09:06:20;;;;;;;7.05;3.65;;;;;;;-148.88;87.77;-17125.47;5012977;28;20076;-70
2023/07/18 09:08:47;;;;;;;6.93;3.55;;;;;;;-148.88;88.86;-17125.47;5013024;28;20029;-71
2023/07/18 09:11:14;;;;;;;11.10;3.80;;;;;;;-148.88;83.80;-17125.47;5016985;28;20392;-70
2023/07/18 09:13:41;;;;;;;7.07;3.28;;;;;;;-148.88;80.03;-17125.47;5015378;28;20117;-70
2023/07/18 09:16:20;;;;;;;7.38;3.50;;;;;;;-148.88;77.29;-17125.47;5016895;28;20029;-70
2023/07/18 09:18:54;;;;;;;8.75;3.55;;;;;;;-148.88;76.18;-17125.47;5017084;28;20044;-72
2023/07/18 09:21:20;;;;;;;;;;;;;;;-148.88;75.87;-17125.47;5017215;28;20029;-72
2023/07/18 09:23:46;;;;;;;6.63;3.70;;;;;;;-148.88;76.55;-17125.47;5016510;28;20435;-71
2023/07/18 09:26:17;;;;;;;5.60;3.03;;;;;;;-148.88;76.72;-17125.47;5016461;28;20036;-70
2023/07/18 09:28:42;;;;;;;6.32;2.33;;;;;;;-148.88;71.53;-17125.47;5016836;28;20031;-71
2023/07/18 09:31:18;;;;;;;5.00;2.60;;;;;;;-148.88;74.61;-17125.47;5016748;28;20028;-71
2023/07/18 09:33:48;;;;;;;8.05;3.58;;;;;;;-148.88;76.49;-17125.47;5016477;28;20040;-71
2023/07/18 09:36:27;;;;;;;8.40;3.17;;;;;;;-148.88;73.09;-17125.47;5016313;28;20108;-70
2023/07/18 09:38:52;;;;;;;6.38;3.03;;;;;;;-148.88;74.47;-17125.47;5016413;28;20029;-71
2023/07/18 09:41:20;;;;;;;7.68;3.50;;;;;;;-148.88;74.81;-17125.47;5015014;28;20080;-70
2023/07/18 09:43:46;;;;;;;7.20;3.38;;;;;;;-148.88;76.49;-17125.47;5016233;28;20029;-71
2023/07/18 09:46:13;;;;;;;7.25;2.95;;;;;;;-148.88;78.92;-17125.47;5016262;28;20026;-70
2023/07/18 09:48:40;;;;;;;5.45;2.40;;;;;;;-148.88;63.96;-17125.47;5016352;28;20026;-71
2023/07/18 09:51:10;;;;;;;6.75;2.45;;;;;;;-148.88;72.93;-17125.47;5016074;28;20025;-71
2023/07/18 09:53:37;;;;;;;7.03;2.50;;;;;;;-148.88;62.61;-17125.47;5016472;28;20025;-71
2023/07/18 09:56:04;;;;;;;4.90;1.70;;;;;;;-148.88;59.15;-17125.47;5014874;28;20523;-71
2023/07/18 09:58:33;;;;;;;6.03;1.88;;;;;;;-148.88;56.37;-17125.47;5016351;28;20030;-71
2023/07/18 10:01:00;;;;;;;5.00;1.65;;;;;;;-148.88;54.67;-17125.47;5016865;28;20113;-71
2023/07/18 10:03:28;;;;;;;3.15;1.65;;;;;;;-148.88;53.31;-17125.47;5014895;28;20022;-71
2023/07/18 10:05:54;;;;;;;4.70;2.08;;;;;;;-148.88;57.65;-17125.47;5016371;28;20026;-71
2023/07/18 10:08:19;;;;;;;4.97;2.15;;;;;;;-148.88;56.63;-17125.47;5016071;28;20033;-71
2023/07/18 10:11:07;;;;;;;8.18;2.20;;;;;;;-148.88;54.24;-17125.47;5016246;28;20045;-71
2023/07/18 10:13:54;;;;;;;4.85;2.30;;;;;;;-148.88;56.62;-17125.47;5016200;28;20029;-71
2023/07/18 10:16:20;;;;;;;5.63;2.40;;;;;;;-148.88;57.16;-17125.47;5016233;28;20021;-71
2023/07/18 10:18:47;;;;;;;4.60;1.90;;;;;;;-148.88;56.80;-17125.47;5015839;28;20100;-71
2023/07/18 10:21:14;;;;;;;4.80;2.38;;;;;;;-148.88;57.46;-17125.47;5014409;28;20030;-71
2023/07/18 10:23:41;;;;;;;5.10;2.50;;;;;;;-148.88;56.07;-17125.47;5015666;28;20026;-71
2023/07/18 10:26:07;;;;;;;4.57;2.20;;;;;;;-148.88;55.42;-17125.47;5015835;28;20484;-71
2023/07/18 10:28:47;;;;;;;5.63;2.10;;;;;;;-148.88;54.97;-17125.47;5015804;28;20080;-72
2023/07/18 10:31:36;;;;;;;4.50;2.25;;;;;;;-148.88;54.43;-17125.47;5015798;28;20018;-71
2023/07/18 10:34:18;;;;;;;5.38;2.20;;;;;;;-148.88;52.50;-17125.47;5014571;28;20041;-71
2023/07/18 10:36:54;;;;;;;4.55;2.53;;;;;;;-148.88;55.76;-17125.47;5015595;28;20100;-71
2023/07/18 10:39:34;;;;;;;7.38;2.50;;;;;;;-148.88;56.22;-17125.47;5015320;28;20029;-71
2023/07/18 10:42:05;;;;;;;4.95;2.30;;;;;;;-148.88;56.10;-17125.47;5015453;28;20025;-71
2023/07/18 10:44:30;;;;;;;4.80;2.13;;;;;;;-148.88;55.54;-17125.47;5015406;28;20053;-71
2023/07/18 10:46:56;;;;;;;4.78;2.28;;;;;;;-148.88;56.11;-17125.47;5015167;28;20412;-71
2023/07/18 10:49:29;;;;;;;5.18;1.98;;;;;;;-148.88;55.13;-17125.47;5015270;28;20022;-71
2023/07/18 10:51:54;;;;;;;4.72;2.15;;;;;;;-148.88;52.76;-17125.47;5015241;28;20112;-71
2023/07/18 10:54:20;;;;;;;3.22;2.00;;;;;;;-148.88;52.23;-17125.47;5015592;28;20468;-71